Time;durP1;ratioP1;P1;durP2;ratioP2;P2;SDS_P1;SDS_P2;PMS_P1;PMS_P2;Temp;Humidity;BMP_temperature;BMP_pressure;BME280_temperature;BME280_humidity;BME280_pressure;Samples;Min_cycle;Max_cycle;Signal;HPM_P1;HPM_P2
2023/03/03 00:01:24;;;;;;;28.80;15.18;;;-0.80;99.90;;;;;;5037992;28;20489;-56
2023/03/03 00:03:50;;;;;;;22.48;15.85;;;-0.80;99.90;;;;;;5038725;28;20021;-57
2023/03/03 00:06:15;;;;;;;43.05;17.83;;;-0.90;99.90;;;;;;5039753;28;20037;-57
2023/03/03 00:08:41;;;;;;;20.67;14.02;;;-0.80;99.90;;;;;;5039498;28;20033;-58
2023/03/03 00:11:07;;;;;;;22.63;15.43;;;-0.80;99.90;;;;;;5039213;28;20584;-57
2023/03/03 00:13:38;;;;;;;24.55;15.50;;;-0.80;99.90;;;;;;5037148;28;20112;-58
2023/03/03 00:16:33;;;;;;;41.45;14.82;;;-0.80;99.90;;;;;;5038934;28;20034;-56
2023/03/03 00:19:00;;;;;;;17.05;13.02;;;-0.80;99.90;;;;;;5037738;28;20026;-56
2023/03/03 00:21:28;;;;;;;21.63;14.57;;;-0.90;99.90;;;;;;5038749;28;20184;-57
2023/03/03 00:24:12;;;;;;;28.33;14.90;;;-0.90;99.90;;;;;;5038177;28;20029;-57
2023/03/03 00:26:40;;;;;;;30.45;16.70;;;-0.80;99.90;;;;;;5037444;28;20582;-56
2023/03/03 00:29:25;;;;;;;22.88;14.23;;;-0.80;99.90;;;;;;5037625;28;20025;-57
2023/03/03 00:31:51;;;;;;;19.43;13.87;;;-0.80;99.90;;;;;;5037278;28;20079;-55
2023/03/03 00:34:16;;;;;;;20.55;14.15;;;-0.80;99.90;;;;;;5038481;28;20060;-57
2023/03/03 00:36:43;;;;;;;20.42;13.95;;;-0.80;99.90;;;;;;5037757;28;20476;-57
2023/03/03 00:39:12;;;;;;;20.52;14.07;;;-0.80;99.90;;;;;;5038470;28;20029;-54
2023/03/03 00:41:38;;;;;;;21.98;14.73;;;-0.80;99.90;;;;;;5037283;28;20037;-57
2023/03/03 00:44:24;;;;;;;24.45;14.65;;;-0.80;99.90;;;;;;5038706;28;20033;-57
2023/03/03 00:46:52;;;;;;;19.63;14.18;;;-0.80;99.90;;;;;;5040037;28;20487;-56
2023/03/03 00:49:24;;;;;;;20.80;14.90;;;-0.80;99.90;;;;;;5038497;28;20639;-56
2023/03/03 00:51:50;;;;;;;35.42;14.63;;;-0.80;99.90;;;;;;5039194;28;20134;-55
2023/03/03 00:54:16;;;;;;;22.40;15.40;;;-0.80;99.90;;;;;;5037875;28;20702;-53
2023/03/03 00:56:41;;;;;;;34.25;14.73;;;-0.80;99.90;;;;;;5037434;28;20039;-57
2023/03/03 00:59:07;;;;;;;22.25;14.82;;;-0.80;99.90;;;;;;5037180;28;20036;-56
2023/03/03 01:01:33;;;;;;;22.50;14.77;;;-0.80;99.90;;;;;;5037914;28;20036;-55
2023/03/03 01:03:58;;;;;;;23.58;14.20;;;-0.80;99.90;;;;;;5038000;28;20399;-54
2023/03/03 01:06:24;;;;;;;21.48;14.80;;;-0.80;99.90;;;;;;5037685;28;20034;-55
2023/03/03 01:08:49;;;;;;;22.35;14.77;;;-0.80;99.90;;;;;;5038159;28;20029;-54
2023/03/03 01:11:22;;;;;;;27.10;15.73;;;-0.80;99.90;;;;;;5037653;28;20025;-56
2023/03/03 01:13:49;;;;;;;22.23;14.70;;;-0.80;99.90;;;;;;5038008;28;20108;-55
2023/03/03 01:16:15;;;;;;;27.38;14.25;;;-0.70;99.90;;;;;;5037057;28;20041;-55
2023/03/03 01:18:41;;;;;;;20.75;14.50;;;-0.70;99.90;;;;;;5037994;28;20514;-56
2023/03/03 01:21:07;;;;;;;23.30;14.82;;;-0.70;99.90;;;;;;5037216;28;20029;-54
2023/03/03 01:23:33;;;;;;;26.63;14.63;;;-0.70;99.90;;;;;;5038348;28;20115;-55
2023/03/03 01:25:59;;;;;;;21.25;15.63;;;-0.70;99.90;;;;;;5037853;28;20483;-57
2023/03/03 01:28:24;;;;;;;20.10;13.93;;;-0.70;99.90;;;;;;5037516;28;20112;-54
2023/03/03 01:30:50;;;;;;;19.73;13.75;;;-0.70;99.90;;;;;;5038426;28;20025;-51
2023/03/03 01:33:16;;;;;;;23.17;15.48;;;-0.70;99.90;;;;;;5038551;28;20037;-54
2023/03/03 01:35:46;;;;;;;22.23;14.50;;;-0.70;99.90;;;;;;5036082;28;20048;-55
2023/03/03 01:38:12;;;;;;;20.77;13.40;;;-0.70;99.90;;;;;;5037158;28;20025;-53
2023/03/03 01:40:38;;;;;;;27.20;15.15;;;-0.80;99.90;;;;;;5036914;28;20095;-54
2023/03/03 01:43:05;;;;;;;18.02;13.23;;;-0.80;99.90;;;;;;5034628;28;20037;-54
2023/03/03 01:45:52;;;;;;;21.38;13.48;;;-0.80;99.90;;;;;;5037607;28;20095;-52
2023/03/03 01:48:39;;;;;;;18.17;13.70;;;-0.80;99.90;;;;;;5006393;28;20622;-55
2023/03/03 01:51:19;;;;;;;24.60;14.13;;;-0.80;99.90;;;;;;5036986;28;20045;-56
2023/03/03 01:53:56;;;;;;;21.50;14.15;;;-0.70;99.90;;;;;;5037256;28;20040;-55
2023/03/03 01:56:22;;;;;;;19.40;13.85;;;-0.70;99.90;;;;;;5037259;28;20021;-54
2023/03/03 01:58:57;;;;;;;18.23;13.55;;;-0.80;99.90;;;;;;5034632;28;20498;-57
2023/03/03 02:01:27;;;;;;;21.40;13.93;;;-0.80;99.90;;;;;;5033096;28;20029;-54
2023/03/03 02:03:53;;;;;;;36.03;14.57;;;-0.70;99.90;;;;;;5034955;28;20040;-57
2023/03/03 02:06:43;;;;;;;32.80;13.57;;;-0.80;99.90;;;;;;5036818;28;20029;-57
2023/03/03 02:09:25;;;;;;;44.08;14.70;;;-0.80;99.90;;;;;;5037530;28;20519;-52
2023/03/03 02:11:55;;;;;;;27.13;13.50;;;-0.80;99.90;;;;;;5038110;28;20022;-57
2023/03/03 02:14:20;;;;;;;31.02;12.75;;;-0.80;99.90;;;;;;5038112;28;20036;-55
2023/03/03 02:16:46;;;;;;;16.85;12.10;;;-0.80;99.90;;;;;;5036774;28;20079;-54
2023/03/03 02:19:51;;;;;;;17.92;13.25;;;-0.80;99.90;;;;;;5036283;28;20511;-56
2023/03/03 02:22:24;;;;;;;19.73;14.35;;;-0.80;99.90;;;;;;5035154;28;20068;-57
2023/03/03 02:24:58;;;;;;;19.75;11.65;;;-0.80;99.90;;;;;;5036410;28;20025;-56
2023/03/03 02:27:25;;;;;;;32.92;13.68;;;-0.80;99.90;;;;;;5037325;28;20020;-57
2023/03/03 02:29:51;;;;;;;38.78;13.60;;;-0.80;99.90;;;;;;5037365;28;20086;-56
2023/03/03 02:32:16;;;;;;;22.92;13.85;;;-0.80;99.90;;;;;;5037850;28;20048;-57
2023/03/03 02:34:51;;;;;;;27.33;13.35;;;-0.90;99.90;;;;;;5037302;28;20033;-56
2023/03/03 02:37:18;;;;;;;17.80;12.93;;;-0.90;99.90;;;;;;5037918;28;20060;-55
2023/03/03 02:39:44;;;;;;;22.30;13.75;;;-0.90;99.90;;;;;;5040089;28;20033;-56
2023/03/03 02:42:18;;;;;;;16.83;12.00;;;-1.00;99.90;;;;;;5041038;28;20033;-56
2023/03/03 02:44:45;;;;;;;19.52;11.88;;;-1.00;99.90;;;;;;5038921;28;20562;-55
2023/03/03 02:47:10;;;;;;;20.45;12.20;;;-1.00;99.90;;;;;;5040695;28;20031;-56
2023/03/03 02:49:36;;;;;;;18.48;12.95;;;-0.90;99.90;;;;;;5040150;28;20017;-56
2023/03/03 02:52:06;;;;;;;20.30;13.35;;;-0.90;99.90;;;;;;5040455;28;20383;-57
2023/03/03 02:54:31;;;;;;;24.85;12.27;;;-0.90;99.90;;;;;;5041274;28;20025;-55
2023/03/03 02:56:58;;;;;;;22.92;13.10;;;-0.90;99.90;;;;;;5041344;28;20564;-57
2023/03/03 02:59:24;;;;;;;19.15;12.52;;;-1.00;99.90;;;;;;5040604;28;20110;-57
2023/03/03 03:01:50;;;;;;;32.35;13.20;;;-1.00;99.90;;;;;;5039255;28;20052;-57
2023/03/03 03:04:21;;;;;;;38.83;13.75;;;-1.00;99.90;;;;;;5039347;28;20443;-56
2023/03/03 03:06:47;;;;;;;17.15;12.18;;;-1.10;99.90;;;;;;5040014;28;20105;-54
2023/03/03 03:09:13;;;;;;;56.63;14.45;;;-1.10;99.90;;;;;;5039156;28;20056;-58
2023/03/03 03:11:40;;;;;;;37.88;13.75;;;-1.10;99.90;;;;;;5039917;28;20025;-54
2023/03/03 03:14:07;;;;;;;18.75;13.13;;;-1.10;99.90;;;;;;5040259;28;20080;-56
2023/03/03 03:16:33;;;;;;;20.02;13.95;;;-1.10;99.90;;;;;;5039583;28;20319;-53
2023/03/03 03:18:59;;;;;;;20.08;13.43;;;-1.00;99.90;;;;;;5039371;28;20033;-53
2023/03/03 03:21:25;;;;;;;16.52;11.27;;;-1.00;99.90;;;;;;5035480;28;20103;-54
2023/03/03 03:23:51;;;;;;;22.65;12.32;;;-1.10;99.90;;;;;;5039614;28;20522;-53
2023/03/03 03:26:16;;;;;;;15.70;12.20;;;-1.10;99.90;;;;;;5038072;28;20044;-55
2023/03/03 03:28:42;;;;;;;18.98;12.88;;;-1.10;99.90;;;;;;5038658;28;20104;-53
2023/03/03 03:31:08;;;;;;;19.98;13.43;;;-1.10;99.90;;;;;;5040818;28;20321;-56
2023/03/03 03:33:35;;;;;;;17.27;11.52;;;-1.00;99.90;;;;;;5039997;28;20049;-57
2023/03/03 03:36:01;;;;;;;19.40;13.15;;;-1.10;99.90;;;;;;5040759;28;20552;-56
2023/03/03 03:38:28;;;;;;;17.17;12.35;;;-1.00;99.90;;;;;;5039611;28;20035;-55
2023/03/03 03:40:54;;;;;;;19.30;11.95;;;-1.00;99.90;;;;;;5039843;28;20014;-54
2023/03/03 03:43:20;;;;;;;18.63;12.65;;;-1.00;99.90;;;;;;5040025;28;20032;-54
2023/03/03 03:45:46;;;;;;;18.05;12.05;;;-1.00;99.90;;;;;;5040200;28;20028;-57
2023/03/03 03:48:12;;;;;;;17.95;12.52;;;-1.00;99.90;;;;;;5040108;28;20466;-53
2023/03/03 03:50:38;;;;;;;20.77;12.27;;;-1.00;99.90;;;;;;5036839;28;20021;-57
2023/03/03 03:53:04;;;;;;;20.38;12.82;;;-1.00;99.90;;;;;;5039957;28;20251;-54
2023/03/03 03:55:30;;;;;;;21.40;12.07;;;-1.00;99.90;;;;;;5039490;28;20021;-56
2023/03/03 03:57:56;;;;;;;34.28;13.15;;;-1.00;99.90;;;;;;5039527;28;20094;-54
2023/03/03 04:00:22;;;;;;;28.35;12.38;;;-1.00;99.90;;;;;;5039075;28;20031;-56
2023/03/03 04:02:47;;;;;;;15.20;11.43;;;-1.10;99.90;;;;;;5039583;28;20041;-57
2023/03/03 04:05:13;;;;;;;15.00;11.70;;;-1.10;99.90;;;;;;5037882;28;20112;-54
2023/03/03 04:07:39;;;;;;;17.17;13.00;;;-1.10;99.90;;;;;;5037706;28;20029;-55
2023/03/03 04:10:05;;;;;;;16.98;11.73;;;-1.10;99.90;;;;;;5038760;28;20083;-53
2023/03/03 04:12:37;;;;;;;16.40;11.57;;;-1.00;99.90;;;;;;5038889;28;20082;-52
2023/03/03 04:15:11;;;;;;;29.15;11.70;;;-1.00;99.90;;;;;;5037737;28;20029;-54
2023/03/03 04:17:37;;;;;;;21.10;12.15;;;-1.00;99.90;;;;;;5037163;28;20037;-55
2023/03/03 04:20:03;;;;;;;28.88;12.02;;;-1.10;99.90;;;;;;5037979;28;20504;-56
2023/03/03 04:22:34;;;;;;;22.67;12.25;;;-1.10;99.90;;;;;;5039631;28;20025;-52
2023/03/03 04:25:03;;;;;;;60.13;13.20;;;-1.10;99.90;;;;;;5039320;28;20422;-57
2023/03/03 04:27:30;;;;;;;41.45;12.63;;;-1.00;99.90;;;;;;5037943;28;20103;-57
2023/03/03 04:29:56;;;;;;;28.30;11.13;;;-1.10;99.90;;;;;;5038125;28;20025;-57
2023/03/03 04:32:21;;;;;;;39.58;11.90;;;-1.10;99.90;;;;;;5039096;28;20033;-58
2023/03/03 04:34:47;;;;;;;36.30;12.57;;;-1.10;99.90;;;;;;5036426;28;20041;-56
2023/03/03 04:37:12;;;;;;;15.25;11.20;;;-1.10;99.90;;;;;;5039198;28;20025;-57
2023/03/03 04:39:38;;;;;;;18.15;12.57;;;-1.10;99.90;;;;;;5037979;28;20047;-56
2023/03/03 04:42:04;;;;;;;17.13;12.13;;;-1.10;99.90;;;;;;5037352;28;20282;-56
2023/03/03 04:44:29;;;;;;;17.90;12.68;;;-1.10;99.90;;;;;;5038732;28;20108;-54
2023/03/03 04:46:55;;;;;;;16.23;11.95;;;-1.00;99.90;;;;;;5038582;28;20017;-56
2023/03/03 04:49:20;;;;;;;20.60;13.07;;;-1.00;99.90;;;;;;5038449;28;20060;-57
2023/03/03 04:51:46;;;;;;;17.80;11.65;;;-1.00;99.90;;;;;;5038757;28;20314;-54
2023/03/03 04:54:11;;;;;;;17.80;12.25;;;-1.00;99.90;;;;;;5038181;28;20041;-54
2023/03/03 04:56:37;;;;;;;17.05;11.95;;;-1.00;99.90;;;;;;5036649;28;20033;-55
2023/03/03 04:59:02;;;;;;;17.65;11.65;;;-0.90;99.90;;;;;;5037223;28;20377;-57
2023/03/03 05:01:28;;;;;;;26.27;12.05;;;-1.00;99.90;;;;;;5036713;28;20407;-56
2023/03/03 05:03:53;;;;;;;18.85;12.43;;;-1.00;99.90;;;;;;5038673;28;20052;-56
2023/03/03 05:06:19;;;;;;;22.75;13.38;;;-1.00;99.90;;;;;;5038120;28;20109;-56
2023/03/03 05:08:45;;;;;;;17.27;12.55;;;-1.00;99.90;;;;;;5039060;28;20040;-57
2023/03/03 05:11:12;;;;;;;15.82;12.07;;;-1.00;99.90;;;;;;5034641;28;20021;-56
2023/03/03 05:13:38;;;;;;;19.35;12.73;;;-1.00;99.90;;;;;;5037740;28;20033;-56
2023/03/03 05:16:04;;;;;;;27.98;12.73;;;-1.00;99.90;;;;;;5038478;28;20164;-56
2023/03/03 05:18:30;;;;;;;15.93;12.25;;;-1.00;99.90;;;;;;5037100;28;20029;-54
2023/03/03 05:20:56;;;;;;;17.00;11.40;;;-1.00;99.90;;;;;;5037123;28;20022;-57
2023/03/03 05:23:22;;;;;;;20.88;11.95;;;-1.00;99.90;;;;;;5036884;28;20029;-54
2023/03/03 05:25:49;;;;;;;15.75;10.95;;;-1.00;99.90;;;;;;5036555;28;20021;-54
2023/03/03 05:28:14;;;;;;;19.13;12.10;;;-0.90;99.90;;;;;;5037405;28;20104;-56
2023/03/03 05:30:40;;;;;;;16.13;11.95;;;-0.90;99.90;;;;;;5034700;28;20100;-53
2023/03/03 05:33:06;;;;;;;16.45;12.40;;;-0.90;99.90;;;;;;5037942;28;20021;-56
2023/03/03 05:35:32;;;;;;;17.15;11.93;;;-0.90;99.90;;;;;;5037744;28;20386;-56
2023/03/03 05:37:57;;;;;;;17.20;11.13;;;-1.00;99.90;;;;;;5037220;28;20061;-56
2023/03/03 05:40:26;;;;;;;17.00;11.25;;;-1.00;99.90;;;;;;5038274;28;20029;-54
2023/03/03 05:42:52;;;;;;;20.90;11.57;;;-1.00;99.90;;;;;;5038321;28;20025;-55
2023/03/03 05:45:23;;;;;;;16.27;11.50;;;-1.00;99.90;;;;;;5037773;28;20389;-54
2023/03/03 05:47:50;;;;;;;16.05;11.38;;;-1.00;99.90;;;;;;5038044;28;20044;-56
2023/03/03 05:50:17;;;;;;;14.13;10.68;;;-1.00;99.90;;;;;;5036822;28;20052;-56
2023/03/03 05:52:42;;;;;;;21.80;11.35;;;-1.00;99.90;;;;;;5038469;28;20092;-51
2023/03/03 05:55:08;;;;;;;23.25;10.18;;;-0.90;99.90;;;;;;5037845;28;20121;-56
2023/03/03 05:57:34;;;;;;;21.48;10.98;;;-0.90;99.90;;;;;;5037600;28;20535;-53
2023/03/03 06:00:04;;;;;;;23.63;11.27;;;-1.00;99.90;;;;;;5037931;28;20025;-56
2023/03/03 06:02:30;;;;;;;33.90;10.52;;;-1.00;99.90;;;;;;5038355;28;20028;-54
2023/03/03 06:04:56;;;;;;;14.57;10.45;;;-1.00;99.90;;;;;;5037624;28;20025;-53
2023/03/03 06:07:21;;;;;;;14.80;10.13;;;-1.10;99.90;;;;;;5037216;28;20116;-55
2023/03/03 06:09:47;;;;;;;28.30;11.65;;;-1.10;99.90;;;;;;5037173;28;20036;-53
2023/03/03 06:12:12;;;;;;;14.77;10.95;;;-1.10;99.90;;;;;;5039279;28;20748;-52
2023/03/03 06:14:38;;;;;;;15.82;11.48;;;-1.10;99.90;;;;;;5040782;28;20064;-57
2023/03/03 06:17:04;;;;;;;22.20;11.57;;;-1.10;99.90;;;;;;5040697;28;20025;-55
2023/03/03 06:19:30;;;;;;;11.40;9.20;;;-1.10;99.90;;;;;;5038584;28;20192;-56
2023/03/03 06:21:56;;;;;;;30.23;11.05;;;-1.10;99.90;;;;;;5041228;28;20070;-56
2023/03/03 06:24:24;;;;;;;14.13;10.10;;;-1.10;99.90;;;;;;5038026;28;20057;-56
2023/03/03 06:26:50;;;;;;;43.17;13.73;;;-1.00;99.90;;;;;;5040882;28;20342;-56
2023/03/03 06:29:15;;;;;;;13.60;10.50;;;-1.00;99.90;;;;;;5041293;28;20205;-55
2023/03/03 06:31:42;;;;;;;21.73;11.82;;;-1.00;99.90;;;;;;5041096;28;20080;-56
2023/03/03 06:34:07;;;;;;;13.02;10.35;;;-1.00;99.90;;;;;;5041751;28;20414;-57
2023/03/03 06:36:33;;;;;;;17.98;11.00;;;-1.00;99.90;;;;;;5040067;28;20036;-57
2023/03/03 06:38:59;;;;;;;13.25;10.35;;;-1.00;99.90;;;;;;5040688;28;20380;-57
2023/03/03 06:41:25;;;;;;;45.25;11.82;;;-1.00;99.90;;;;;;5040430;28;20033;-54
2023/03/03 06:43:51;;;;;;;17.00;11.88;;;-0.90;99.90;;;;;;5039271;28;20419;-58
2023/03/03 06:46:16;;;;;;;12.57;9.88;;;-1.00;99.90;;;;;;5040434;28;20026;-55
2023/03/03 06:48:42;;;;;;;15.43;11.55;;;-0.90;99.90;;;;;;5040055;28;20088;-55
2023/03/03 06:51:32;;;;;;;16.52;12.95;;;-0.90;99.90;;;;;;5040688;28;20083;-58
2023/03/03 06:54:01;;;;;;;20.45;11.15;;;-0.90;99.90;;;;;;5038817;28;20479;-57
2023/03/03 06:56:27;;;;;;;18.83;10.77;;;-0.80;99.90;;;;;;5037979;28;20116;-53
2023/03/03 06:58:57;;;;;;;13.43;10.57;;;-0.80;99.90;;;;;;5040028;28;20045;-56
2023/03/03 07:01:23;;;;;;;14.13;11.07;;;-0.80;99.90;;;;;;5041068;28;20029;-58
2023/03/03 07:03:49;;;;;;;13.68;10.60;;;-0.80;99.90;;;;;;5039826;28;20037;-58
2023/03/03 07:06:23;;;;;;;23.45;11.50;;;-0.80;99.90;;;;;;5040384;28;20110;-56
2023/03/03 07:08:50;;;;;;;13.73;10.50;;;-0.80;99.90;;;;;;5038466;28;20450;-55
2023/03/03 07:11:19;;;;;;;14.30;10.75;;;-0.80;99.90;;;;;;5040307;28;20082;-56
2023/03/03 07:13:49;;;;;;;13.15;10.63;;;-0.80;99.90;;;;;;5038424;28;20033;-51
2023/03/03 07:16:17;;;;;;;23.88;10.43;;;-0.70;99.90;;;;;;5040356;28;20033;-56
2023/03/03 07:18:54;;;;;;;15.05;10.05;;;-0.70;99.90;;;;;;5040661;28;20071;-54
2023/03/03 07:21:23;;;;;;;13.60;10.10;;;-0.70;99.90;;;;;;5038370;28;20051;-55
2023/03/03 07:23:51;;;;;;;11.80;9.55;;;-0.70;99.90;;;;;;5040475;28;20171;-55
2023/03/03 07:26:29;;;;;;;18.90;11.18;;;-0.70;99.90;;;;;;5039680;28;20033;-58
2023/03/03 07:29:00;;;;;;;15.23;10.70;;;-0.70;99.90;;;;;;5040054;28;20106;-55
2023/03/03 07:31:44;;;;;;;14.13;10.98;;;-0.60;99.90;;;;;;5040436;28;20029;-57
2023/03/03 07:34:23;;;;;;;13.18;9.48;;;-0.60;99.90;;;;;;5039105;28;20049;-58
2023/03/03 07:36:54;;;;;;;12.85;9.27;;;-0.60;99.90;;;;;;5040140;28;20029;-58
2023/03/03 07:39:42;;;;;;;14.63;9.40;;;-0.50;99.90;;;;;;5039371;28;20021;-58
2023/03/03 07:42:31;;;;;;;12.35;9.20;;;-0.50;99.90;;;;;;5039545;28;20029;-58
2023/03/03 07:44:58;;;;;;;24.30;10.50;;;-0.40;99.90;;;;;;5039446;28;20566;-54
2023/03/03 07:47:26;;;;;;;14.43;10.30;;;-0.40;99.90;;;;;;5039752;28;20450;-58
2023/03/03 07:50:00;;;;;;;14.35;9.98;;;-0.40;99.90;;;;;;5040337;28;20056;-57
2023/03/03 07:52:38;;;;;;;12.15;9.02;;;-0.40;99.90;;;;;;5039692;28;20017;-51
2023/03/03 07:55:31;;;;;;;26.08;10.77;;;-0.30;99.90;;;;;;5040069;28;20024;-57
2023/03/03 07:58:09;;;;;;;16.90;9.23;;;-0.30;99.90;;;;;;5040198;28;20029;-55
2023/03/03 08:00:44;;;;;;;12.73;8.65;;;-0.30;99.90;;;;;;5038649;28;20029;-54
2023/03/03 08:03:18;;;;;;;13.38;9.75;;;-0.30;99.90;;;;;;5040343;28;20027;-55
2023/03/03 08:05:47;;;;;;;16.42;9.32;;;-0.30;99.90;;;;;;5036818;28;20824;-55
2023/03/03 08:08:32;;;;;;;16.17;11.68;;;-0.20;99.90;;;;;;5039832;28;20021;-57
2023/03/03 08:10:59;;;;;;;14.00;10.65;;;-0.10;99.90;;;;;;5038752;28;20021;-55
2023/03/03 08:13:37;;;;;;;12.52;10.05;;;-0.10;99.90;;;;;;5039507;28;20082;-57
2023/03/03 08:16:09;;;;;;;12.05;9.27;;;-0.10;99.90;;;;;;5038162;28;20252;-58
2023/03/03 08:18:39;;;;;;;13.40;9.68;;;-0.10;99.90;;;;;;5039953;28;20033;-57
2023/03/03 08:21:17;;;;;;;11.40;9.05;;;0.00;99.90;;;;;;5039446;28;20447;-56
2023/03/03 08:23:43;;;;;;;11.38;9.18;;;0.10;99.90;;;;;;5038605;28;20135;-55
2023/03/03 08:26:11;;;;;;;25.67;9.93;;;0.20;99.90;;;;;;5039012;28;20553;-57
2023/03/03 08:28:37;;;;;;;12.43;8.48;;;0.20;99.90;;;;;;5036978;28;20100;-57
2023/03/03 08:31:03;;;;;;;26.08;11.40;;;0.30;99.90;;;;;;5038172;28;20136;-54
2023/03/03 08:33:28;;;;;;;22.42;13.63;;;0.40;99.90;;;;;;5035948;28;20116;-56
2023/03/03 08:35:54;;;;;;;12.77;9.13;;;0.40;99.90;;;;;;5037545;28;20025;-56
2023/03/03 08:38:20;;;;;;;12.75;9.25;;;0.40;99.90;;;;;;5037205;28;20032;-57
2023/03/03 08:40:46;;;;;;;14.02;9.27;;;0.50;99.90;;;;;;5039258;28;20021;-58
2023/03/03 08:43:16;;;;;;;12.65;9.32;;;0.50;99.90;;;;;;5037383;28;20087;-57
2023/03/03 08:45:45;;;;;;;14.40;9.82;;;0.60;99.90;;;;;;5037611;28;20013;-57
2023/03/03 08:48:11;;;;;;;11.85;9.57;;;0.60;99.90;;;;;;5038962;28;20051;-58
2023/03/03 08:50:37;;;;;;;13.55;9.85;;;0.60;99.90;;;;;;5039190;28;20028;-57
2023/03/03 08:53:03;;;;;;;11.55;9.30;;;0.70;99.90;;;;;;5037961;28;20029;-58
2023/03/03 08:55:29;;;;;;;19.83;9.68;;;0.70;99.90;;;;;;5039128;28;20040;-58
2023/03/03 08:57:55;;;;;;;16.00;9.88;;;0.70;99.90;;;;;;5038534;28;20030;-58
2023/03/03 09:00:21;;;;;;;13.90;9.40;;;0.80;99.90;;;;;;5037824;28;20021;-58
2023/03/03 09:02:48;;;;;;;11.90;8.40;;;0.90;99.90;;;;;;5037826;28;20021;-58
2023/03/03 09:05:13;;;;;;;11.15;8.43;;;0.90;99.90;;;;;;5036938;28;20552;-58
2023/03/03 09:07:40;;;;;;;10.70;7.53;;;1.00;99.90;;;;;;5037827;28;20026;-58
2023/03/03 09:10:07;;;;;;;9.95;7.07;;;1.00;99.90;;;;;;5038707;28;20479;-57
2023/03/03 09:12:41;;;;;;;10.20;7.25;;;1.10;99.90;;;;;;5038759;28;20436;-57
2023/03/03 09:15:31;;;;;;;9.85;7.05;;;1.10;99.90;;;;;;5037438;28;20041;-58
2023/03/03 09:17:58;;;;;;;12.35;7.30;;;1.10;99.90;;;;;;5036527;28;20257;-58
2023/03/03 09:20:40;;;;;;;11.70;7.80;;;1.20;99.90;;;;;;5036041;28;20653;-58
2023/03/03 09:23:32;;;;;;;8.27;6.85;;;1.30;99.90;;;;;;5038002;28;20044;-58
2023/03/03 09:26:25;;;;;;;8.10;6.53;;;1.40;99.90;;;;;;5037957;28;20029;-57
2023/03/03 09:28:52;;;;;;;7.57;6.43;;;1.40;99.90;;;;;;5035813;28;20030;-57
2023/03/03 09:31:41;;;;;;;8.27;6.40;;;1.50;99.90;;;;;;5037352;28;20083;-56
2023/03/03 09:34:35;;;;;;;9.25;6.78;;;1.50;99.90;;;;;;5035704;28;20033;-58
2023/03/03 09:37:14;;;;;;;9.07;7.00;;;1.60;99.90;;;;;;5036850;28;20495;-58
2023/03/03 09:39:39;;;;;;;10.30;6.57;;;1.60;99.90;;;;;;5036178;28;20021;-59
2023/03/03 09:42:25;;;;;;;24.05;7.65;;;1.70;99.90;;;;;;5037328;28;20679;-56
2023/03/03 09:44:57;;;;;;;10.05;7.38;;;1.70;99.90;;;;;;5038745;28;20132;-58
2023/03/03 09:47:34;;;;;;;22.05;7.65;;;1.70;99.90;;;;;;5039580;28;20077;-57
2023/03/03 09:50:18;;;;;;;16.75;6.35;;;1.80;99.90;;;;;;5041519;28;20399;-57
2023/03/03 09:52:52;;;;;;;8.57;6.10;;;1.80;99.90;;;;;;5040495;28;20483;-55
2023/03/03 09:55:41;;;;;;;11.05;6.50;;;1.90;99.90;;;;;;5041410;28;20616;-57
2023/03/03 09:58:33;;;;;;;6.97;5.35;;;2.00;99.90;;;;;;5056582;28;20098;-56
2023/03/03 10:01:06;;;;;;;9.75;6.60;;;2.10;99.90;;;;;;5039385;28;20145;-57
2023/03/03 10:03:49;;;;;;;11.38;6.88;;;2.20;99.90;;;;;;5040020;28;20029;-57
2023/03/03 10:06:25;;;;;;;11.02;7.75;;;2.30;99.90;;;;;;5041423;28;20025;-53
2023/03/03 10:09:16;;;;;;;9.18;7.25;;;2.30;99.90;;;;;;5039389;28;20029;-55
2023/03/03 10:11:49;;;;;;;11.63;6.72;;;2.40;99.90;;;;;;5040872;28;20159;-56
2023/03/03 10:14:39;;;;;;;8.93;6.13;;;2.50;99.90;;;;;;5042624;28;20041;-57
2023/03/03 10:17:38;;;;;;;8.40;5.85;;;2.60;99.90;;;;;;5041564;28;20630;-58
2023/03/03 10:20:10;;;;;;;15.35;6.45;;;2.60;99.90;;;;;;5038120;28;20511;-58
2023/03/03 10:23:03;;;;;;;9.20;6.18;;;2.60;99.90;;;;;;5041595;28;20033;-55
2023/03/03 10:25:56;;;;;;;9.63;6.57;;;2.70;99.90;;;;;;5041569;28;20048;-57
2023/03/03 10:28:28;;;;;;;12.40;6.60;;;2.80;99.90;;;;;;5039150;28;20071;-58
2023/03/03 10:31:15;;;;;;;7.68;5.97;;;2.80;99.90;;;;;;5039286;28;20028;-56
2023/03/03 10:33:56;;;;;;;7.78;6.10;;;2.90;99.90;;;;;;5040613;28;20045;-58
2023/03/03 10:36:34;;;;;;;15.63;6.97;;;3.00;99.90;;;;;;5039307;28;20549;-57
2023/03/03 10:39:33;;;;;;;9.32;5.95;;;3.10;99.90;;;;;;5040549;28;20048;-57
2023/03/03 10:42:26;;;;;;;9.65;5.63;;;3.00;99.90;;;;;;5040807;28;20036;-57
2023/03/03 10:45:16;;;;;;;11.55;5.88;;;3.10;99.90;;;;;;5041461;28;20021;-57
2023/03/03 10:48:05;;;;;;;8.32;6.15;;;3.10;99.90;;;;;;5040416;28;20119;-54
2023/03/03 10:50:42;;;;;;;8.55;6.72;;;3.20;99.90;;;;;;5040659;28;20108;-58
2023/03/03 10:53:26;;;;;;;10.25;7.40;;;3.20;99.90;;;;;;5037468;28;20032;-58
2023/03/03 10:56:13;;;;;;;12.30;8.13;;;3.30;99.90;;;;;;5040368;28;20488;-56
2023/03/03 10:59:11;;;;;;;15.20;9.45;;;3.20;99.90;;;;;;5039883;28;20372;-57
2023/03/03 11:01:43;;;;;;;17.83;9.38;;;3.20;99.90;;;;;;5032821;28;20152;-58
2023/03/03 11:04:21;;;;;;;13.23;8.50;;;3.20;99.90;;;;;;5039626;28;20037;-56
2023/03/03 11:07:00;;;;;;;13.98;9.45;;;3.20;99.90;;;;;;5040167;28;20020;-58
2023/03/03 11:09:31;;;;;;;12.82;9.30;;;3.20;99.90;;;;;;5040200;28;20104;-58
2023/03/03 11:12:19;;;;;;;13.75;9.30;;;3.20;99.90;;;;;;5040109;28;20017;-53
2023/03/03 11:14:54;;;;;;;14.77;9.88;;;3.30;99.90;;;;;;5039620;28;20036;-55
2023/03/03 11:17:27;;;;;;;21.08;15.02;;;3.40;99.90;;;;;;5039838;28;20043;-59
2023/03/03 11:19:56;;;;;;;32.38;19.63;;;3.40;99.90;;;;;;5039814;28;20064;-58
2023/03/03 11:22:40;;;;;;;47.00;27.33;;;3.60;99.90;;;;;;5040531;28;20018;-58
2023/03/03 11:25:31;;;;;;;18.88;13.50;;;3.70;99.90;;;;;;5040153;28;20805;-55
2023/03/03 11:28:25;;;;;;;15.85;10.82;;;3.80;99.90;;;;;;5039689;28;20059;-58
2023/03/03 11:31:03;;;;;;;15.82;11.55;;;3.90;99.90;;;;;;5040362;28;20415;-59
2023/03/03 11:33:43;;;;;;;13.65;11.48;;;4.00;99.90;;;;;;5038888;28;20033;-57
2023/03/03 11:36:22;;;;;;;14.68;12.55;;;4.00;99.90;;;;;;5040295;28;20554;-58
2023/03/03 11:38:50;;;;;;;15.02;10.25;;;4.10;99.90;;;;;;5039835;28;20025;-57
2023/03/03 11:41:36;;;;;;;21.08;15.68;;;4.10;99.90;;;;;;5039309;28;20104;-55
2023/03/03 11:44:07;;;;;;;18.42;12.60;;;4.10;99.90;;;;;;5037973;28;20395;-57
2023/03/03 11:46:49;;;;;;;14.73;13.05;;;4.10;99.90;;;;;;5038648;28;20027;-57
2023/03/03 11:49:27;;;;;;;14.20;10.25;;;4.10;99.90;;;;;;5038838;28;20063;-58
2023/03/03 11:52:06;;;;;;;12.95;10.02;;;4.20;99.90;;;;;;5038406;28;20510;-58
2023/03/03 11:55:03;;;;;;;12.68;8.25;;;4.20;99.90;;;;;;5039606;28;20018;-58
2023/03/03 11:57:34;;;;;;;18.73;9.35;;;4.20;99.90;;;;;;5039082;28;20025;-54
2023/03/03 12:00:22;;;;;;;13.82;9.25;;;4.30;99.90;;;;;;5037545;28;20123;-57
2023/03/03 12:02:51;;;;;;;10.68;8.50;;;4.30;99.90;;;;;;5039513;28;20024;-57
2023/03/03 12:05:47;;;;;;;13.00;9.63;;;4.40;99.90;;;;;;5036738;28;20028;-53
2023/03/03 12:08:22;;;;;;;13.77;8.93;;;4.50;99.90;;;;;;5040134;28;20021;-57
2023/03/03 12:11:12;;;;;;;13.32;8.52;;;4.60;99.90;;;;;;5037333;28;20032;-57
2023/03/03 12:14:11;;;;;;;12.52;8.70;;;4.70;99.90;;;;;;5038741;28;20072;-58
2023/03/03 12:16:50;;;;;;;16.50;9.23;;;4.80;99.90;;;;;;5039539;28;20033;-58
2023/03/03 12:19:43;;;;;;;13.80;8.77;;;4.90;99.90;;;;;;5037675;28;20022;-58
2023/03/03 12:22:33;;;;;;;15.40;9.75;;;4.90;99.90;;;;;;5039752;28;20048;-56
2023/03/03 12:25:23;;;;;;;13.18;8.35;;;5.10;99.90;;;;;;5036542;28;20060;-59
2023/03/03 12:28:04;;;;;;;14.93;8.57;;;5.20;99.90;;;;;;5039174;28;20047;-58
2023/03/03 12:30:44;;;;;;;19.70;8.77;;;5.30;99.90;;;;;;5037218;28;20021;-55
2023/03/03 12:33:39;;;;;;;15.93;8.05;;;5.30;99.90;;;;;;5038546;28;20417;-54
2023/03/03 12:36:29;;;;;;;14.60;8.10;;;5.40;99.90;;;;;;5036603;28;20045;-56
2023/03/03 12:39:22;;;;;;;13.13;7.65;;;5.40;99.90;;;;;;5038342;28;20082;-59
2023/03/03 12:41:55;;;;;;;11.13;7.10;;;5.30;99.90;;;;;;5031461;28;20052;-58
2023/03/03 12:44:39;;;;;;;13.88;8.00;;;5.40;99.90;;;;;;5038648;28;20090;-58
2023/03/03 12:47:34;;;;;;;15.18;7.38;;;5.50;99.90;;;;;;5037985;28;20065;-58
2023/03/03 12:50:08;;;;;;;12.32;6.47;;;5.50;99.90;;;;;;5037941;28;20521;-59
2023/03/03 12:52:52;;;;;;;9.30;5.93;;;5.50;99.90;;;;;;5038940;28;20026;-58
2023/03/03 12:55:46;;;;;;;12.30;6.43;;;5.50;99.90;;;;;;5037802;28;20056;-57
2023/03/03 12:58:36;;;;;;;9.80;6.03;;;5.50;99.90;;;;;;5039121;28;20029;-56
2023/03/03 13:01:18;;;;;;;10.48;5.25;;;5.50;99.90;;;;;;5037064;28;20044;-59
2023/03/03 13:04:04;;;;;;;10.15;5.50;;;5.60;99.90;;;;;;5037798;28;20506;-56